createdAt,value
2019-05-20T00:00:18.307Z,22.97
2019-05-20T00:02:47.751Z,24.60
2019-05-20T00:05:17.158Z,22.53
2019-05-20T00:07:47.087Z,24.90
2019-05-20T00:10:16.548Z,22.57
2019-05-20T00:12:45.826Z,21.87
2019-05-20T00:15:15.380Z,23.27
2019-05-20T00:17:44.733Z,24.10
2019-05-20T00:20:14.250Z,23.30
2019-05-20T00:22:43.528Z,23.70
2019-05-20T00:25:12.767Z,21.93
2019-05-20T00:27:42.062Z,22.43
2019-05-20T00:30:11.579Z,20.33
2019-05-20T00:32:42.341Z,20.63
2019-05-20T00:35:14.910Z,25.30
2019-05-20T00:37:44.183Z,17.97
2019-05-20T00:40:13.566Z,22.90
2019-05-20T00:42:42.812Z,20.57
2019-05-20T00:45:12.816Z,19.73
2019-05-20T00:47:42.178Z,19.53
2019-05-20T00:50:11.570Z,19.70
2019-05-20T00:52:40.932Z,16.90
2019-05-20T00:55:21.793Z,18.63
2019-05-20T00:57:51.046Z,19.17
2019-05-20T01:00:20.410Z,21.77
2019-05-20T01:02:57.070Z,18.27
2019-05-20T01:05:21.680Z,18.33
2019-05-20T01:07:51.019Z,17.23
2019-05-20T01:10:20.355Z,18.00
2019-05-20T01:12:49.642Z,17.87
2019-05-20T01:15:19.933Z,18.20
2019-05-20T01:17:49.264Z,19.03
2019-05-20T01:20:18.942Z,16.23
2019-05-20T01:22:48.226Z,17.67
2019-05-20T01:25:17.730Z,17.80
2019-05-20T01:27:47.143Z,16.80
2019-05-20T01:30:17.996Z,17.83
2019-05-20T01:32:47.274Z,17.07
2019-05-20T01:35:16.738Z,16.80
2019-05-20T01:37:46.091Z,20.93
2019-05-20T01:40:15.448Z,17.43
2019-05-20T01:42:45.307Z,20.13
2019-05-20T01:45:15.154Z,20.27
2019-05-20T01:47:44.479Z,18.20
2019-05-20T01:50:13.759Z,17.17
2019-05-20T01:52:43.106Z,17.37
2019-05-20T01:55:13.165Z,19.40
2019-05-20T01:57:42.581Z,18.73
2019-05-20T02:00:12.130Z,19.53
2019-05-20T02:02:41.397Z,17.97
2019-05-20T02:05:11.179Z,18.90
2019-05-20T02:07:40.417Z,16.63
2019-05-20T02:10:10.318Z,15.37
2019-05-20T02:12:39.648Z,16.13
2019-05-20T02:15:22.517Z,15.63
2019-05-20T02:17:51.855Z,15.10
2019-05-20T02:20:21.194Z,18.30
2019-05-20T02:22:50.510Z,18.93
2019-05-20T02:25:19.970Z,20.17
2019-05-20T02:27:49.237Z,16.57
2019-05-20T02:30:18.840Z,17.73
2019-05-20T02:32:48.154Z,15.37
2019-05-20T02:35:17.611Z,18.27
2019-05-20T02:37:46.870Z,15.60
2019-05-20T02:40:16.428Z,15.87
2019-05-20T02:42:45.763Z,19.30
2019-05-20T02:45:15.095Z,13.70
2019-05-20T02:47:44.465Z,12.20
2019-05-20T02:50:13.951Z,10.57
2019-05-20T02:52:43.784Z,10.93
2019-05-20T02:55:13.128Z,11.30
2019-05-20T02:57:42.396Z,11.90
2019-05-20T03:00:12.204Z,12.70
2019-05-20T03:02:41.666Z,12.97
2019-05-20T03:05:11.123Z,16.03
2019-05-20T03:07:40.379Z,18.97
2019-05-20T03:10:09.905Z,20.33
2019-05-20T03:12:40.294Z,20.17
2019-05-20T03:15:10.092Z,21.20
2019-05-20T03:17:39.427Z,26.20
2019-05-20T03:20:09.189Z,22.17
2019-05-20T03:22:38.556Z,23.00
2019-05-20T03:25:08.489Z,25.73
2019-05-20T03:27:37.957Z,19.70
2019-05-20T03:30:08.458Z,23.37
2019-05-20T03:32:37.774Z,19.40
2019-05-20T03:35:08.154Z,17.93
2019-05-20T03:37:37.535Z,17.97
2019-05-20T03:40:08.283Z,19.70
2019-05-20T03:42:38.418Z,16.70
2019-05-20T03:45:08.239Z,18.13
2019-05-20T03:47:37.489Z,24.80
2019-05-20T03:50:07.367Z,23.23
2019-05-20T03:52:36.703Z,21.90
2019-05-20T03:55:06.619Z,25.27
2019-05-20T03:57:35.882Z,20.90
2019-05-20T04:00:05.523Z,22.53
2019-05-20T04:02:34.790Z,20.83
2019-05-20T04:05:04.521Z,19.77
2019-05-20T04:07:33.889Z,17.80
2019-05-20T04:10:03.171Z,19.40
2019-05-20T04:12:32.475Z,19.43
2019-05-20T04:15:01.815Z,25.40
2019-05-20T04:17:31.186Z,23.77
2019-05-20T04:20:00.725Z,20.03
2019-05-20T04:22:30.086Z,21.63
2019-05-20T04:24:59.674Z,23.93
2019-05-20T04:27:28.998Z,26.50
2019-05-20T04:29:58.418Z,25.60
2019-05-20T04:32:27.670Z,29.40
2019-05-20T04:34:57.471Z,23.40
2019-05-20T04:37:26.818Z,24.93
2019-05-20T04:39:57.797Z,25.97
2019-05-20T04:42:27.163Z,22.97
2019-05-20T04:44:57.491Z,20.80
2019-05-20T04:47:29.812Z,16.83
2019-05-20T04:49:59.201Z,21.60
2019-05-20T04:52:28.530Z,22.03
2019-05-20T04:54:57.983Z,16.23
2019-05-20T04:57:27.607Z,22.53
2019-05-20T04:59:58.791Z,25.10
2019-05-20T05:02:28.550Z,19.60
2019-05-20T05:04:58.139Z,22.87
2019-05-20T05:07:27.460Z,18.97
2019-05-20T05:09:56.849Z,23.93
2019-05-20T05:12:26.263Z,18.20
2019-05-20T05:14:56.147Z,20.83
2019-05-20T05:17:25.389Z,18.30
2019-05-20T05:19:55.125Z,17.73
2019-05-20T05:22:25.973Z,14.30
2019-05-20T05:24:55.550Z,19.70
2019-05-20T05:27:26.215Z,19.57
2019-05-20T05:29:57.387Z,21.80
2019-05-20T05:32:42.577Z,20.63
2019-05-20T05:35:13.893Z,22.27
2019-05-20T05:37:43.266Z,20.23
2019-05-20T05:40:14.587Z,20.40
2019-05-20T05:42:43.868Z,20.80
2019-05-20T05:45:13.863Z,15.17
2019-05-20T05:47:43.218Z,16.57
2019-05-20T05:50:12.855Z,16.67
2019-05-20T05:52:42.172Z,19.17
2019-05-20T05:55:11.823Z,15.27
2019-05-20T05:57:41.157Z,15.33
2019-05-20T06:00:11.026Z,16.27
2019-05-20T06:02:40.263Z,17.67
2019-05-20T06:05:09.630Z,18.53
2019-05-20T06:07:38.921Z,16.03
2019-05-20T06:10:08.727Z,11.50
2019-05-20T06:12:38.206Z,12.80
2019-05-20T06:15:08.100Z,18.93
2019-05-20T06:17:38.250Z,14.93
2019-05-20T06:20:09.648Z,16.97
2019-05-20T06:22:39.122Z,12.90
2019-05-20T06:25:09.008Z,14.27
2019-05-20T06:27:38.521Z,13.83
2019-05-20T06:30:09.109Z,12.80
2019-05-20T06:32:39.770Z,13.10
2019-05-20T06:35:09.918Z,14.80
2019-05-20T06:37:42.495Z,16.43
2019-05-20T06:40:12.339Z,13.13
2019-05-20T06:42:41.641Z,13.37
2019-05-20T06:45:11.074Z,12.90
2019-05-20T06:47:40.322Z,11.27
2019-05-20T06:50:09.889Z,10.57
2019-05-20T06:52:41.313Z,11.00
2019-05-20T06:55:14.233Z,9.37
2019-05-20T06:57:43.500Z,7.23
2019-05-20T07:00:19.488Z,9.87
2019-05-20T07:02:52.030Z,8.87
2019-05-20T07:05:19.922Z,10.40
2019-05-20T07:07:49.338Z,8.53
2019-05-20T07:10:18.615Z,10.27
2019-05-20T07:12:48.029Z,8.57
2019-05-20T07:15:17.432Z,8.97
2019-05-20T07:17:46.837Z,10.47
2019-05-20T07:20:16.144Z,6.97
2019-05-20T07:22:55.644Z,9.07
2019-05-20T07:25:17.377Z,11.07
2019-05-20T07:27:46.654Z,8.93
2019-05-20T07:30:16.082Z,9.50
2019-05-20T07:32:45.344Z,10.43
2019-05-20T07:35:28.646Z,7.07
2019-05-20T07:37:45.757Z,7.93
2019-05-20T07:40:17.769Z,10.07
2019-05-20T07:42:47.092Z,8.67
2019-05-20T07:45:16.500Z,11.53
2019-05-20T07:47:45.788Z,9.47
2019-05-20T07:50:15.583Z,10.20
2019-05-20T07:52:44.826Z,8.47
2019-05-20T07:55:14.264Z,8.20
2019-05-20T07:57:46.402Z,10.20
2019-05-20T08:00:17.271Z,7.67
2019-05-20T08:02:46.791Z,8.77
2019-05-20T08:05:16.298Z,8.23
2019-05-20T08:07:51.927Z,8.77
2019-05-20T08:10:16.753Z,10.73
2019-05-20T08:12:46.124Z,10.83
2019-05-20T08:15:16.909Z,8.37
2019-05-20T08:17:46.181Z,9.73
2019-05-20T08:20:15.986Z,7.90
2019-05-20T08:22:45.234Z,10.00
2019-05-20T08:25:14.749Z,6.97
2019-05-20T08:27:43.979Z,6.10
2019-05-20T08:30:14.872Z,6.63
2019-05-20T08:32:44.160Z,9.17
2019-05-20T08:35:15.151Z,7.13
2019-05-20T08:37:46.007Z,7.50
2019-05-20T08:40:16.953Z,6.63
2019-05-20T08:42:46.274Z,7.60
2019-05-20T08:45:15.723Z,7.83
2019-05-20T08:47:45.030Z,8.47
2019-05-20T08:50:16.423Z,9.00
2019-05-20T08:52:46.239Z,8.67
2019-05-20T08:55:15.823Z,6.10
2019-05-20T08:57:45.118Z,7.47
2019-05-20T09:00:23.786Z,6.87
2019-05-20T09:02:52.994Z,5.40
2019-05-20T09:05:22.293Z,8.70
2019-05-20T09:08:02.481Z,7.87
2019-05-20T09:10:23.570Z,9.03
2019-05-20T09:12:52.840Z,7.10
2019-05-20T09:15:22.265Z,8.75
2019-05-20T09:17:52.702Z,7.12
2019-05-20T09:20:22.161Z,7.03
2019-05-20T09:22:52.533Z,10.28
2019-05-20T09:25:31.691Z,7.28
2019-05-20T09:28:01.400Z,7.10
2019-05-20T09:30:30.721Z,7.20
2019-05-20T09:33:00.054Z,6.65
2019-05-20T09:35:29.614Z,6.35
2019-05-20T09:37:59.130Z,7.20
2019-05-20T09:40:43.011Z,5.95
2019-05-20T09:43:12.439Z,4.87
2019-05-20T09:45:41.714Z,6.85
2019-05-20T09:48:11.804Z,6.85
2019-05-20T09:50:41.206Z,5.87
2019-05-20T09:53:10.571Z,6.03
2019-05-20T09:55:39.958Z,5.90
2019-05-20T09:58:09.341Z,6.47
2019-05-20T10:00:38.760Z,5.62
2019-05-20T10:03:08.081Z,5.45
2019-05-20T10:05:38.116Z,6.40
2019-05-20T10:08:07.827Z,7.87
2019-05-20T10:10:37.535Z,5.28
2019-05-20T10:13:07.342Z,6.03
2019-05-20T10:15:37.428Z,7.33
2019-05-20T10:18:06.754Z,6.08
2019-05-20T10:20:36.718Z,4.37
2019-05-20T10:23:06.048Z,6.95
2019-05-20T10:25:35.414Z,5.12
2019-05-20T10:28:04.791Z,7.08
2019-05-20T10:30:34.213Z,4.53
2019-05-20T10:33:03.553Z,12.63
2019-05-20T10:35:33.009Z,5.40
2019-05-20T10:38:02.351Z,5.72
2019-05-20T10:40:31.815Z,5.47
2019-05-20T10:43:01.257Z,4.35
2019-05-20T10:45:32.271Z,5.67
2019-05-20T10:48:01.994Z,5.05
2019-05-20T10:50:31.395Z,3.95
2019-05-20T10:53:00.652Z,6.03
2019-05-20T10:55:30.061Z,4.03
2019-05-20T10:57:59.362Z,3.95
2019-05-20T11:00:28.683Z,5.35
2019-05-20T11:02:58.013Z,4.87
2019-05-20T11:05:27.293Z,8.60
2019-05-20T11:07:56.856Z,5.20
2019-05-20T11:10:26.341Z,5.40
2019-05-20T11:12:55.685Z,5.05
2019-05-20T11:15:24.964Z,4.25
2019-05-20T11:17:54.255Z,6.20
2019-05-20T11:20:23.664Z,3.42
2019-05-20T11:22:52.906Z,5.00
2019-05-20T11:25:22.346Z,4.35
2019-05-20T11:27:51.607Z,4.15
2019-05-20T11:30:21.402Z,6.05
2019-05-20T11:32:50.669Z,6.28
2019-05-20T11:35:21.125Z,5.03
2019-05-20T11:37:50.415Z,3.80
2019-05-20T11:40:20.455Z,5.90
2019-05-20T11:42:49.814Z,3.90
2019-05-20T11:45:19.157Z,5.15
2019-05-20T11:47:48.447Z,4.47
2019-05-20T11:50:19.407Z,5.75
2019-05-20T11:52:48.879Z,5.62
2019-05-20T11:55:18.301Z,3.50
2019-05-20T11:57:47.660Z,4.17
2019-05-20T12:00:17.306Z,4.75
2019-05-20T12:02:46.638Z,3.10
2019-05-20T12:05:16.066Z,4.85
2019-05-20T12:07:45.763Z,7.78
2019-05-20T12:10:15.384Z,3.75
2019-05-20T12:12:46.202Z,3.98
2019-05-20T12:15:17.334Z,4.05
2019-05-20T12:17:46.639Z,4.20
2019-05-20T12:20:16.073Z,3.67
2019-05-20T12:22:45.364Z,2.55
2019-05-20T12:25:14.843Z,4.50
2019-05-20T12:27:44.537Z,2.77
2019-05-20T12:30:14.165Z,2.92
2019-05-20T12:32:43.544Z,3.20
2019-05-20T12:35:13.217Z,3.42
2019-05-20T12:37:45.621Z,3.98
2019-05-20T12:40:15.247Z,2.37
2019-05-20T12:42:44.575Z,3.35
2019-05-20T12:45:16.533Z,3.12
2019-05-20T12:47:46.335Z,2.50
2019-05-20T12:50:16.890Z,3.10
2019-05-20T12:52:46.164Z,3.47
2019-05-20T12:55:15.813Z,3.33
2019-05-20T12:57:45.237Z,2.77
2019-05-20T13:00:16.896Z,3.55
2019-05-20T13:02:46.280Z,4.45
2019-05-20T13:05:16.210Z,3.87
2019-05-20T13:07:45.599Z,2.30
2019-05-20T13:10:32.272Z,2.22
2019-05-20T13:12:47.153Z,3.95
2019-05-20T13:15:16.896Z,2.08
2019-05-20T13:17:46.248Z,4.87
2019-05-20T13:20:15.895Z,2.40
2019-05-20T13:22:45.368Z,4.35
2019-05-20T13:25:14.711Z,3.67
2019-05-20T13:27:43.987Z,3.45
2019-05-20T13:58:01.414Z,2.80
2019-05-20T14:00:30.752Z,3.58
2019-05-20T14:03:00.186Z,4.42
2019-05-20T14:05:29.631Z,1.70
2019-05-20T14:07:59.219Z,2.75
2019-05-20T14:10:28.698Z,2.20
2019-05-20T14:12:58.019Z,2.02
2019-05-20T14:15:27.533Z,2.85
2019-05-20T14:17:56.870Z,5.53
2019-05-20T14:20:26.468Z,3.62
2019-05-20T14:22:55.904Z,2.85
2019-05-20T14:25:28.705Z,2.72
2019-05-20T14:27:56.314Z,2.55
2019-05-20T14:30:25.643Z,3.60
2019-05-20T14:32:55.201Z,2.80
2019-05-20T14:35:24.709Z,2.98
2019-05-20T14:37:54.053Z,2.67
2019-05-20T14:40:23.503Z,1.60
2019-05-20T14:42:52.786Z,1.77
2019-05-20T14:45:22.179Z,1.77
2019-05-20T14:47:51.533Z,1.52
2019-05-20T14:50:21.877Z,4.60
2019-05-20T14:52:51.707Z,4.22
2019-05-20T14:55:21.251Z,2.10
2019-05-20T14:57:50.573Z,2.08
2019-05-20T15:00:20.729Z,1.80
2019-05-20T15:02:50.058Z,3.42
2019-05-20T15:05:20.456Z,1.67
2019-05-20T15:07:49.792Z,2.92
2019-05-20T15:10:20.851Z,1.60
2019-05-20T15:12:50.238Z,2.33
2019-05-20T15:15:19.722Z,2.08
2019-05-20T15:17:48.957Z,4.15
2019-05-20T15:20:18.516Z,4.75
2019-05-20T15:22:47.830Z,3.47
2019-05-20T15:25:17.477Z,2.17
2019-05-20T15:27:49.744Z,1.95
2019-05-20T15:30:17.984Z,2.08
2019-05-20T15:32:47.262Z,4.00
2019-05-20T15:35:16.769Z,1.90
2019-05-20T15:37:46.058Z,2.25
2019-05-20T15:40:16.505Z,3.15
2019-05-20T15:42:45.774Z,1.70
2019-05-20T15:45:15.362Z,1.80
2019-05-20T15:47:44.722Z,3.95
2019-05-20T15:50:14.656Z,3.67
2019-05-20T15:52:45.596Z,3.45
2019-05-20T15:55:15.114Z,4.12
2019-05-20T15:57:44.428Z,5.40
2019-05-20T16:00:15.899Z,3.00
2019-05-20T16:02:45.143Z,3.17
2019-05-20T16:05:14.627Z,3.12
2019-05-20T16:07:44.602Z,2.50
2019-05-20T16:10:14.146Z,3.33
2019-05-20T16:12:44.603Z,1.80
2019-05-20T16:15:14.902Z,2.70
2019-05-20T16:17:47.959Z,2.27
2019-05-20T16:20:16.449Z,2.98
2019-05-20T16:22:45.759Z,4.30
2019-05-20T16:25:15.403Z,3.02
2019-05-20T16:27:44.675Z,5.80
2019-05-20T16:30:14.903Z,2.72
2019-05-20T16:32:44.292Z,3.08
2019-05-20T16:35:17.185Z,3.30
2019-05-20T16:37:47.031Z,4.28
2019-05-20T16:40:16.283Z,2.17
2019-05-20T16:42:47.642Z,2.37
2019-05-20T16:45:18.096Z,1.50
2019-05-20T16:47:47.486Z,1.50
2019-05-20T16:50:17.180Z,1.50
2019-05-20T16:52:47.840Z,1.80
2019-05-20T16:55:21.806Z,1.55
2019-05-20T16:57:51.459Z,3.85
2019-05-20T17:00:31.530Z,2.25
2019-05-20T17:02:54.443Z,2.00
2019-05-20T17:05:26.451Z,1.50
2019-05-20T17:08:00.539Z,2.25
2019-05-20T17:10:30.640Z,1.67
2019-05-20T17:13:00.461Z,3.02
2019-05-20T17:15:31.158Z,1.67
2019-05-20T17:18:01.976Z,2.05
2019-05-20T17:20:31.996Z,1.72
2019-05-20T17:23:01.725Z,1.55
2019-05-20T17:25:31.200Z,1.87
2019-05-20T17:28:00.921Z,1.75
2019-05-20T17:30:44.082Z,1.65
2019-05-20T17:33:02.098Z,1.50
2019-05-20T17:35:33.834Z,2.15
2019-05-20T17:38:03.243Z,1.35
2019-05-20T17:40:32.778Z,2.50
2019-05-20T17:43:03.394Z,2.17
2019-05-20T17:45:34.254Z,1.50
2019-05-20T17:48:04.208Z,4.72
2019-05-20T17:50:33.855Z,1.90
2019-05-20T17:53:03.531Z,1.47
2019-05-20T17:55:34.404Z,1.90
2019-05-20T17:58:04.434Z,1.95
2019-05-20T18:00:34.303Z,2.90
2019-05-20T18:03:04.127Z,4.37
2019-05-20T18:05:34.745Z,2.72
2019-05-20T18:08:06.666Z,3.40
2019-05-20T18:13:00.470Z,1.60
2019-05-20T18:15:29.811Z,2.27
2019-05-20T18:17:59.292Z,3.70
2019-05-20T18:20:31.070Z,3.47
2019-05-20T18:23:00.670Z,3.43
2019-05-20T18:25:30.285Z,2.03
2019-05-20T18:27:59.845Z,2.20
2019-05-20T18:30:29.443Z,4.33
2019-05-20T18:32:58.895Z,1.60
2019-05-20T18:35:28.595Z,1.82
2019-05-20T18:37:58.126Z,5.83
2019-05-20T18:40:27.683Z,2.80
2019-05-20T18:42:57.143Z,1.90
2019-05-20T18:45:26.715Z,2.30
2019-05-20T18:47:56.339Z,3.70
2019-05-20T18:50:28.477Z,5.13
2019-05-20T18:53:01.405Z,4.80
2019-05-20T18:55:34.313Z,4.07
2019-05-20T18:58:02.153Z,2.97
2019-05-20T19:00:31.487Z,2.77
2019-05-20T19:03:00.928Z,4.93
2019-05-20T19:05:30.188Z,5.03
2019-05-20T19:08:00.172Z,6.27
2019-05-20T19:10:29.613Z,4.97
2019-05-20T19:12:59.217Z,2.87
2019-05-20T19:15:28.551Z,2.90
2019-05-20T19:17:57.988Z,4.73
2019-05-20T19:20:27.315Z,3.27
2019-05-20T19:22:56.702Z,4.57
2019-05-20T19:25:37.327Z,4.23
2019-05-20T19:27:57.138Z,3.33
2019-05-20T19:30:26.524Z,5.30
2019-05-20T19:32:56.122Z,4.37
2019-05-20T19:35:25.534Z,5.30
2019-05-20T19:37:54.782Z,5.80
2019-05-20T19:40:24.882Z,5.97
2019-05-20T19:42:54.308Z,4.53
2019-05-20T19:45:23.793Z,6.27
2019-05-20T19:47:53.323Z,6.53
2019-05-20T19:50:22.589Z,5.40
2019-05-20T19:52:53.139Z,5.23
2019-05-20T19:55:22.473Z,3.47
2019-05-20T19:57:51.960Z,7.17
2019-05-20T20:00:21.391Z,5.53
2019-05-20T20:02:50.787Z,7.10
2019-05-20T20:05:20.047Z,5.83
2019-05-20T20:07:49.514Z,6.23
2019-05-20T20:10:18.800Z,6.47
2019-05-20T20:12:48.140Z,8.10
2019-05-20T20:15:18.567Z,8.03
2019-05-20T20:17:47.956Z,5.90
2019-05-20T20:20:17.429Z,6.33
2019-05-20T20:22:46.760Z,4.87
2019-05-20T20:25:16.279Z,6.13
2019-05-20T20:27:46.149Z,6.83
2019-05-20T20:30:15.724Z,8.57
2019-05-20T20:32:45.130Z,8.60
2019-05-20T20:35:14.707Z,12.30
2019-05-20T20:37:44.042Z,10.40
2019-05-20T20:40:14.111Z,7.90
2019-05-20T20:42:43.462Z,6.77
2019-05-20T20:45:12.920Z,8.93
2019-05-20T20:47:42.493Z,6.17
2019-05-20T20:50:12.691Z,7.60
2019-05-20T20:52:42.033Z,6.27
2019-05-20T20:55:11.956Z,21.53
2019-05-20T20:57:41.201Z,10.40
2019-05-20T21:00:11.729Z,6.23
2019-05-20T21:02:52.608Z,8.80
2019-05-20T21:05:12.970Z,9.97
2019-05-20T21:07:42.264Z,8.67
2019-05-20T21:10:11.855Z,12.37
2019-05-20T21:12:41.264Z,8.53
2019-05-20T21:15:11.129Z,10.40
2019-05-20T21:17:40.578Z,7.53
2019-05-20T21:20:09.827Z,10.30
2019-05-20T21:22:39.197Z,9.87
2019-05-20T21:25:08.575Z,8.90
2019-05-20T21:27:38.047Z,9.97
2019-05-20T21:30:08.293Z,8.87
2019-05-20T21:32:37.926Z,11.67
2019-05-20T21:35:07.222Z,9.33
2019-05-20T21:37:36.555Z,9.80
2019-05-20T21:40:06.239Z,7.87
2019-05-20T21:42:35.844Z,12.40
2019-05-20T21:45:05.755Z,9.27
2019-05-20T21:47:35.028Z,9.47
2019-05-20T21:50:04.496Z,12.17
2019-05-20T21:52:34.343Z,10.93
2019-05-20T21:55:04.233Z,8.20
2019-05-20T21:57:33.719Z,11.07
2019-05-20T22:00:03.114Z,7.90
2019-05-20T22:02:32.556Z,12.70
2019-05-20T22:05:01.991Z,7.53
2019-05-20T22:07:31.459Z,8.57
2019-05-20T22:10:00.904Z,7.80
2019-05-20T22:12:30.210Z,7.67
2019-05-20T22:14:59.523Z,6.27
2019-05-20T22:17:29.929Z,7.47
2019-05-20T22:19:59.226Z,8.60
2019-05-20T22:22:47.695Z,8.67
2019-05-20T22:25:17.144Z,9.40
2019-05-20T22:27:46.576Z,7.77
2019-05-20T22:30:16.412Z,7.23
2019-05-20T22:32:45.686Z,7.77
2019-05-20T22:35:15.143Z,11.43
2019-05-20T22:37:45.003Z,7.60
2019-05-20T22:40:14.504Z,7.20
2019-05-20T22:42:44.038Z,8.00
2019-05-20T22:45:13.310Z,7.40
2019-05-20T22:47:42.641Z,6.30
2019-05-20T22:50:11.979Z,5.63
2019-05-20T22:52:41.395Z,6.70
2019-05-20T22:55:10.743Z,7.43
2019-05-20T22:57:40.177Z,6.33
2019-05-20T23:00:10.409Z,6.67
2019-05-20T23:02:40.054Z,6.80
2019-05-20T23:05:09.463Z,5.70
2019-05-20T23:07:38.980Z,4.60
2019-05-20T23:10:08.881Z,5.60
2019-05-20T23:12:38.297Z,7.80
2019-05-20T23:15:07.862Z,6.97
2019-05-20T23:17:37.123Z,5.97
2019-05-20T23:20:07.415Z,5.27
2019-05-20T23:22:36.703Z,8.30
2019-05-20T23:25:06.041Z,8.27
2019-05-20T23:27:35.313Z,6.97
2019-05-20T23:30:05.470Z,7.53
2019-05-20T23:32:34.798Z,7.73
2019-05-20T23:35:04.507Z,22.33
2019-05-20T23:37:33.868Z,11.53
2019-05-20T23:40:03.298Z,8.87
2019-05-20T23:42:32.562Z,10.33
2019-05-20T23:45:01.984Z,6.73
2019-05-20T23:47:31.318Z,6.90
2019-05-20T23:50:00.725Z,8.80
2019-05-20T23:52:30.125Z,11.13
2019-05-20T23:54:59.418Z,6.87
2019-05-20T23:57:28.753Z,5.87
2019-05-20T23:59:58.168Z,7.30
